Terminal Aerodrome Forecast
Issued by NWS

Home | Current Version | Previous Version | Text Only | Print | Product List | Glossary On
Versions: 1 2 3 4 5 6 7 8 9 10 11 12 13
000
FTUS44 KLZK 202300
TAFBPK
TAF
KBPK 202333Z 2100/2124 18007KT P6SM SCT050 BKN250
     FM210500 15006KT P6SM VCSH BKN100 OVC250
     FM210900 14006KT P6SM VCSH SCT020 BKN080 OVC100
      TEMPO 2111/2115 5SM -TSRA BR BKN035CB OVC050
     FM211500 16007KT P6SM -SHRA BKN050 OVC100
     FM211800 23009KT P6SM -TSRA BKN040CB OVC100=

USA.gov is the U.S. government's official web portal to all federal, state and local government web resources and services.